createdAt,value
2023-12-07T00:05:10.935Z,4.36
2023-12-07T00:10:42.546Z,4.36
2023-12-07T00:16:14.440Z,4.42
2023-12-07T00:21:46.935Z,4.27
2023-12-07T00:27:17.798Z,4.34
2023-12-07T00:32:49.391Z,4.25
2023-12-07T00:38:21.101Z,4.2
2023-12-07T00:43:57.720Z,4.19
2023-12-07T00:49:28.966Z,4.32
2023-12-07T00:55:10.210Z,4.17
2023-12-07T01:00:32.585Z,4.15
2023-12-07T01:06:04.170Z,4.2
2023-12-07T01:11:36.034Z,3.99
2023-12-07T01:17:07.597Z,4.04
2023-12-07T01:22:39.498Z,4.2
2023-12-07T01:28:11.177Z,4.31
2023-12-07T01:33:42.952Z,4.21
2023-12-07T01:39:14.567Z,4.39
2023-12-07T01:44:50.512Z,4.42
2023-12-07T01:50:22.584Z,4.37
2023-12-07T01:55:54.141Z,4.41
2023-12-07T02:01:25.814Z,4.56
2023-12-07T02:06:57.554Z,4.5
2023-12-07T02:12:55.992Z,4.45
2023-12-07T02:18:03.461Z,4.52
2023-12-07T02:23:40.987Z,4.51
2023-12-07T02:29:04.321Z,4.43
2023-12-07T02:34:36.120Z,4.34
2023-12-07T02:40:08.191Z,4.27
2023-12-07T02:45:44.357Z,4.26
2023-12-07T02:51:15.623Z,4.22
2023-12-07T02:56:47.355Z,4.19
2023-12-07T03:02:19.148Z,4.13
2023-12-07T03:07:50.864Z,4.04
2023-12-07T03:13:22.654Z,3.94
2023-12-07T03:18:54.355Z,3.88
2023-12-07T03:24:26.438Z,3.83
2023-12-07T03:29:58.022Z,3.72
2023-12-07T03:35:29.458Z,3.63
2023-12-07T03:41:03.412Z,3.55
2023-12-07T03:46:37.416Z,3.52
2023-12-07T03:52:09.257Z,3.48
2023-12-07T03:57:40.772Z,3.46
2023-12-07T04:03:12.606Z,3.44
2023-12-07T04:08:44.356Z,3.4
2023-12-07T04:14:16.097Z,3.37
2023-12-07T04:19:47.796Z,3.35
2023-12-07T04:25:19.439Z,3.32
2023-12-07T04:30:51.153Z,3.3
2023-12-07T04:36:22.875Z,3.28
2023-12-07T04:41:54.734Z,3.29
2023-12-07T04:47:31.319Z,3.21
2023-12-07T04:53:02.419Z,3.2
2023-12-07T04:58:34.120Z,3.18
2023-12-07T05:04:05.896Z,3.2
2023-12-07T05:09:37.744Z,3.15
2023-12-07T05:15:09.319Z,3.09
2023-12-07T05:20:41.074Z,3.05
2023-12-07T05:26:12.719Z,2.95
2023-12-07T05:31:44.500Z,2.88
2023-12-07T05:37:16.380Z,2.83
2023-12-07T05:42:47.880Z,2.79
2023-12-07T05:48:26.047Z,2.75
2023-12-07T05:53:57.834Z,2.67
2023-12-07T05:59:29.654Z,2.6
2023-12-07T06:05:01.415Z,2.58
2023-12-07T06:10:33.285Z,2.56
2023-12-07T06:16:04.747Z,2.54
2023-12-07T06:21:36.386Z,2.57
2023-12-07T06:27:08.257Z,2.55
2023-12-07T06:32:39.932Z,2.55
2023-12-07T06:38:11.724Z,2.51
2023-12-07T06:43:43.351Z,2.5
2023-12-07T06:49:19.451Z,2.45
2023-12-07T06:54:51.146Z,2.45
2023-12-07T07:00:22.841Z,2.41
2023-12-07T07:05:54.925Z,2.38
2023-12-07T07:11:26.363Z,2.39
2023-12-07T07:16:58.049Z,2.38
2023-12-07T07:22:29.809Z,2.43
2023-12-07T07:28:01.621Z,2.46
2023-12-07T07:33:33.296Z,2.48
2023-12-07T07:39:04.978Z,2.48
2023-12-07T07:44:36.972Z,2.52
2023-12-07T07:50:12.808Z,2.61
2023-12-07T07:55:44.759Z,2.75
2023-12-07T08:01:16.951Z,2.73
2023-12-07T08:06:47.995Z,2.91
2023-12-07T08:12:19.908Z,2.95
2023-12-07T08:17:51.501Z,3.03
2023-12-07T08:23:23.158Z,3.03
2023-12-07T08:28:55.731Z,3.1
2023-12-07T08:34:26.800Z,3.19
2023-12-07T08:39:58.381Z,3.28
2023-12-07T08:45:30.316Z,3.49
2023-12-07T08:51:06.412Z,2.98
2023-12-07T08:56:38.059Z,3.17
2023-12-07T09:02:09.734Z,3.11
2023-12-07T09:07:41.654Z,3.19
2023-12-07T09:13:13.129Z,3.49
2023-12-07T09:18:44.942Z,3.36
2023-12-07T09:24:16.725Z,3.44
2023-12-07T09:29:48.272Z,3.56
2023-12-07T09:35:20.699Z,3.74
2023-12-07T09:40:52.246Z,3.8
2023-12-07T09:46:23.606Z,3.91
2023-12-07T09:52:02.043Z,4.04
2023-12-07T09:57:33.972Z,3.94
2023-12-07T10:03:05.097Z,3.97
2023-12-07T10:08:37.116Z,4.21
2023-12-07T10:14:08.525Z,4.27
2023-12-07T10:19:40.249Z,4.24
2023-12-07T10:25:12.286Z,4.64
2023-12-07T10:30:44.385Z,4.72
2023-12-07T10:36:15.566Z,4.74
2023-12-07T10:41:47.264Z,4.73
2023-12-07T10:47:18.782Z,4.8
2023-12-07T10:52:54.912Z,5.17
2023-12-07T10:58:26.804Z,5.34
2023-12-07T11:03:58.448Z,5.25
2023-12-07T11:09:30.355Z,5.49
2023-12-07T11:15:01.777Z,5.61
2023-12-07T11:20:34.082Z,5.9
2023-12-07T11:26:05.240Z,6.06
2023-12-07T11:31:36.962Z,6.38
2023-12-07T11:37:08.705Z,6.3
2023-12-07T11:42:40.442Z,7.12
2023-12-07T11:48:14.241Z,6.98
2023-12-07T11:53:50.398Z,7.31
2023-12-07T11:59:24.977Z,7.58
2023-12-07T12:04:53.922Z,7.7
2023-12-07T12:10:25.667Z,8.04
2023-12-07T12:15:57.219Z,7.82
2023-12-07T12:21:29.610Z,7.44
2023-12-07T12:27:00.533Z,7.29
2023-12-07T12:32:32.285Z,7.21
2023-12-07T12:38:04.554Z,7.04
2023-12-07T12:43:35.749Z,6.73
2023-12-07T12:49:07.556Z,6.65
2023-12-07T12:54:43.618Z,6.69
2023-12-07T13:00:15.741Z,6.24
2023-12-07T13:05:47.139Z,6.6
2023-12-07T13:11:18.792Z,6.55
2023-12-07T13:16:50.692Z,6.46
2023-12-07T13:22:22.387Z,6.43
2023-12-07T13:27:53.978Z,6.32
2023-12-07T13:33:27.974Z,6.38
2023-12-07T13:38:58.104Z,6.51
2023-12-07T13:44:29.538Z,6.34
2023-12-07T13:50:01.116Z,6.66
2023-12-07T13:55:37.740Z,6.39
2023-12-07T14:01:08.757Z,6.58
2023-12-07T14:06:40.443Z,6.69
2023-12-07T14:12:12.308Z,6.53
2023-12-07T14:17:47.160Z,6.76
2023-12-07T14:23:16.104Z,6.69
2023-12-07T14:28:47.474Z,6.49
2023-12-07T14:34:23.566Z,6.45
2023-12-07T14:39:51.461Z,6.39
2023-12-07T14:45:22.795Z,6.14
2023-12-07T14:50:54.400Z,5.91
2023-12-07T14:56:32.516Z,5.87
2023-12-07T15:02:03.987Z,5.98
2023-12-07T15:07:35.715Z,5.86
2023-12-07T15:13:07.654Z,5.83
2023-12-07T15:18:39.441Z,5.64
2023-12-07T15:24:12.524Z,5.44
2023-12-07T15:29:42.745Z,5.5
2023-12-07T15:35:14.376Z,5.03
2023-12-07T15:40:46.262Z,5.21
2023-12-07T15:46:17.937Z,5.05
2023-12-07T15:51:49.536Z,5.01
2023-12-07T15:57:27.842Z,5.12
2023-12-07T16:02:59.546Z,5.04
2023-12-07T16:08:31.174Z,4.71
2023-12-07T16:14:02.832Z,4.62
2023-12-07T16:19:34.626Z,4.7
2023-12-07T16:25:06.348Z,4.75
2023-12-07T16:30:43.323Z,4.72
2023-12-07T16:36:12.907Z,4.62
2023-12-07T16:41:44.936Z,4.62
2023-12-07T16:47:13.104Z,4.49
2023-12-07T16:52:48.518Z,4.34
2023-12-07T16:58:27.165Z,4.31
2023-12-07T17:03:54.982Z,4.15
2023-12-07T17:09:26.611Z,4.14
2023-12-07T17:14:58.267Z,4.09
2023-12-07T17:20:30.217Z,4.01
2023-12-07T17:26:01.797Z,3.86
2023-12-07T17:31:33.382Z,3.88
2023-12-07T17:37:05.180Z,4.02
2023-12-07T17:42:37.002Z,3.64
2023-12-07T17:48:08.773Z,3.7
2023-12-07T17:53:40.761Z,3.5
2023-12-07T17:59:18.348Z,3.62
2023-12-07T18:04:50.293Z,3.44
2023-12-07T18:10:22.460Z,3.25
2023-12-07T18:15:55.777Z,3.39
2023-12-07T18:21:25.540Z,3.26
2023-12-07T18:26:58.207Z,3.39
2023-12-07T18:32:28.990Z,3.39
2023-12-07T18:38:00.524Z,3.29
2023-12-07T18:43:32.194Z,3.09
2023-12-07T18:49:05.118Z,2.99
2023-12-07T18:54:35.919Z,2.82
2023-12-07T19:00:11.938Z,2.96
2023-12-07T19:05:43.731Z,2.89
2023-12-07T19:11:15.457Z,2.76
2023-12-07T19:16:47.011Z,2.73
2023-12-07T19:22:18.688Z,2.55
2023-12-07T19:27:50.543Z,2.59
2023-12-07T19:33:22.342Z,2.68
2023-12-07T19:38:54.002Z,2.66
2023-12-07T19:44:25.640Z,2.72
2023-12-07T19:49:57.312Z,2.81
2023-12-07T19:55:28.980Z,2.87
2023-12-07T20:01:05.161Z,2.8
2023-12-07T20:06:39.333Z,2.89
2023-12-07T20:12:08.615Z,2.98
2023-12-07T20:17:40.528Z,2.7
2023-12-07T20:23:12.036Z,2.82
2023-12-07T20:28:43.793Z,2.81
2023-12-07T20:34:15.632Z,2.93
2023-12-07T20:39:47.372Z,2.94
2023-12-07T20:45:18.975Z,3.08
2023-12-07T20:50:50.658Z,2.94
2023-12-07T20:56:24.357Z,2.84
2023-12-07T21:02:01.827Z,2.82
2023-12-07T21:07:32.183Z,3.05
2023-12-07T21:13:04.722Z,3.11
2023-12-07T21:18:35.833Z,3.18
2023-12-07T21:24:07.528Z,3.03
2023-12-07T21:29:39.194Z,2.97
2023-12-07T21:35:10.999Z,3.19
2023-12-07T21:40:42.690Z,3.39
2023-12-07T21:46:14.378Z,3.26
2023-12-07T21:51:46.242Z,3.24
2023-12-07T21:57:18.209Z,3.28
2023-12-07T22:02:54.206Z,2.87
2023-12-07T22:08:25.621Z,2.78
2023-12-07T22:13:58.518Z,2.93
2023-12-07T22:19:29.403Z,3.22
2023-12-07T22:25:01.088Z,2.99
2023-12-07T22:30:32.558Z,3.2
2023-12-07T22:36:04.370Z,3.21
2023-12-07T22:41:36.225Z,3.47
2023-12-07T22:47:14.768Z,3.43
2023-12-07T22:52:46.369Z,3.56
2023-12-07T22:58:18.063Z,3.59
2023-12-07T23:03:56.145Z,3.63
2023-12-07T23:09:27.912Z,3.41
2023-12-07T23:14:59.703Z,3.09
2023-12-07T23:20:31.385Z,3.08
2023-12-07T23:26:03.036Z,2.88
2023-12-07T23:31:34.962Z,2.85
2023-12-07T23:37:06.518Z,2.94
2023-12-07T23:42:38.232Z,2.89
2023-12-07T23:48:10.936Z,2.92
2023-12-07T23:53:41.780Z,3.12
2023-12-07T23:59:13.377Z,2.95
